Time;durP1;ratioP1;P1;durP2;ratioP2;P2;SDS_P1;SDS_P2;PMS_P1;PMS_P2;Temp;Humidity;BMP_temperature;BMP_pressure;BME280_temperature;BME280_humidity;BME280_pressure;Samples;Min_cycle;Max_cycle;Signal;HPM_P1;HPM_P2
2022/06/01 00:00:54;;;;;;;65.90;41.63;;;;;;;;;;5072723;28;20048;-70
2022/06/01 00:03:20;;;;;;;59.92;39.67;;;;;;;;;;5072561;28;20037;-68
2022/06/01 00:05:46;;;;;;;70.85;40.47;;;;;;;;;;5072353;28;20070;-69
2022/06/01 00:08:12;;;;;;;66.75;41.05;;;;;;;;;;5072556;28;20040;-69
2022/06/01 00:10:37;;;;;;;68.15;39.25;;;;;;;;;;5054172;28;20087;-69
2022/06/01 00:13:03;;;;;;;57.70;38.72;;;;;;;;;;5054523;28;20055;-69
2022/06/01 00:15:30;;;;;;;57.67;36.28;;;;;;;;;;5072171;28;20512;-70
2022/06/01 00:17:58;;;;;;;57.47;38.17;;;;;;;;;;5072439;28;20075;-70
2022/06/01 00:20:24;;;;;;;51.17;35.03;;;;;;;;;;5072075;28;20142;-70
2022/06/01 00:22:50;;;;;;;51.63;33.60;;;;;;;;;;5053618;28;20040;-69
2022/06/01 00:25:16;;;;;;;65.82;40.88;;;;;;;;;;5072294;28;20548;-71
2022/06/01 00:27:42;;;;;;;87.30;44.95;;;;;;;;;;5071815;28;20048;-69
2022/06/01 00:30:09;;;;;;;81.95;43.40;;;;;;;;;;5071845;28;20042;-69
2022/06/01 00:32:35;;;;;;;68.50;40.97;;;;;;;;;;5053891;28;20579;-70
2022/06/01 00:35:01;;;;;;;76.07;44.00;;;;;;;;;;5071829;28;20124;-70
2022/06/01 00:37:27;;;;;;;71.85;41.53;;;;;;;;;;5071468;28;20063;-70
2022/06/01 00:39:53;;;;;;;68.05;42.28;;;;;;;;;;5071698;28;20504;-70
2022/06/01 00:42:20;;;;;;;68.72;41.70;;;;;;;;;;5053715;28;20052;-69
2022/06/01 00:44:46;;;;;;;66.80;38.58;;;;;;;;;;5071357;28;20040;-69
2022/06/01 00:47:15;;;;;;;53.60;34.90;;;;;;;;;;5071428;28;20515;-68
2022/06/01 00:49:41;;;;;;;54.97;37.10;;;;;;;;;;5071622;28;20040;-69
2022/06/01 00:52:07;;;;;;;67.65;38.15;;;;;;;;;;5053410;28;20067;-70
2022/06/01 00:54:33;;;;;;;66.10;38.00;;;;;;;;;;5053312;28;20041;-70
2022/06/01 00:57:00;;;;;;;48.83;32.38;;;;;;;;;;5071020;28;20536;-69
2022/06/01 00:59:28;;;;;;;44.53;30.88;;;;;;;;;;5053761;28;20047;-70
2022/06/01 01:01:53;;;;;;;50.80;32.58;;;;;;;;;;5071192;28;20408;-69
2022/06/01 01:04:19;;;;;;;55.58;34.97;;;;;;;;;;5071236;28;20070;-68
2022/06/01 01:06:45;;;;;;;46.15;31.75;;;;;;;;;;5036591;28;20045;-69
2022/06/01 01:09:11;;;;;;;64.57;41.17;;;;;;;;;;5071170;28;20500;-69
2022/06/01 01:11:53;;;;;;;63.53;40.08;;;;;;;;;;5070616;28;20067;-70
2022/06/01 01:14:20;;;;;;;68.85;42.28;;;;;;;;;;5036715;28;20063;-69
2022/06/01 01:16:48;;;;;;;87.03;45.25;;;;;;;;;;5070598;28;20121;-69
2022/06/01 01:19:33;;;;;;;82.93;47.38;;;;;;;;;;5070856;28;20044;-69
2022/06/01 01:22:10;;;;;;;96.05;52.75;;;;;;;;;;5070770;28;20086;-69
2022/06/01 01:24:37;;;;;;;85.38;46.70;;;;;;;;;;5070537;28;20036;-68
2022/06/01 01:27:03;;;;;;;79.57;44.92;;;;;;;;;;5070682;28;20126;-69
2022/06/01 01:29:47;;;;;;;78.43;47.92;;;;;;;;;;5052754;28;20052;-68
2022/06/01 01:32:13;;;;;;;73.85;44.35;;;;;;;;;;5052625;28;20053;-70
2022/06/01 01:34:39;;;;;;;64.20;40.65;;;;;;;;;;5070536;28;20531;-68
2022/06/01 01:37:07;;;;;;;63.95;39.03;;;;;;;;;;5070620;28;20043;-70
2022/06/01 01:39:34;;;;;;;72.13;40.83;;;;;;;;;;5052427;28;20040;-68
2022/06/01 01:42:00;;;;;;;62.25;38.03;;;;;;;;;;5070327;28;20072;-69
2022/06/01 01:44:34;;;;;;;58.22;36.63;;;;;;;;;;5070377;28;20468;-69
2022/06/01 01:47:00;;;;;;;50.67;34.85;;;;;;;;;;5070488;28;20051;-69
2022/06/01 01:49:27;;;;;;;52.67;35.15;;;;;;;;;;5070252;28;20044;-70
2022/06/01 01:51:58;;;;;;;53.13;33.42;;;;;;;;;;5052066;28;20083;-69
2022/06/01 01:54:42;;;;;;;55.38;34.20;;;;;;;;;;5070291;28;20075;-70
2022/06/01 01:57:11;;;;;;;60.38;34.65;;;;;;;;;;5052099;28;20040;-70
2022/06/01 01:59:59;;;;;;;52.80;33.20;;;;;;;;;;5070011;28;20123;-70
2022/06/01 02:02:28;;;;;;;52.80;32.42;;;;;;;;;;5052247;28;20048;-70
2022/06/01 02:08:01;;;;;;;54.30;30.23;;;;;;;;;;5051434;28;20463;-69
2022/06/01 02:24:58;;;;;;;51.55;33.45;;;;;;;;;;5139643;27;20412;-69
2022/06/01 02:27:23;;;;;;;44.47;30.90;;;;;;;;;;5105532;28;20059;-70
2022/06/01 02:29:51;;;;;;;49.75;30.08;;;;;;;;;;5105529;28;20044;-70
2022/06/01 02:32:17;;;;;;;41.72;30.08;;;;;;;;;;5080414;28;20115;-69
2022/06/01 02:34:43;;;;;;;37.53;27.20;;;;;;;;;;5084935;28;20067;-69
2022/06/01 02:37:09;;;;;;;28.45;24.23;;;;;;;;;;5050525;28;20562;-69
2022/06/01 02:39:36;;;;;;;34.67;23.90;;;;;;;;;;5066735;28;20067;-69
2022/06/01 02:42:28;;;;;;;30.45;23.92;;;;;;;;;;5067242;28;20024;-69
2022/06/01 02:44:54;;;;;;;38.13;24.77;;;;;;;;;;5085031;28;20047;-69
2022/06/01 02:47:21;;;;;;;39.55;26.33;;;;;;;;;;5066523;28;20033;-69
2022/06/01 02:49:46;;;;;;;33.03;23.42;;;;;;;;;;5099487;28;20086;-69
2022/06/01 02:52:13;;;;;;;27.02;21.85;;;;;;;;;;5105052;28;20063;-68
2022/06/01 02:54:38;;;;;;;29.55;22.40;;;;;;;;;;5103352;28;20124;-69
2022/06/01 02:57:05;;;;;;;22.75;19.95;;;;;;;;;;5104944;28;20035;-67
2022/06/01 02:59:32;;;;;;;20.73;18.65;;;;;;;;;;5104774;28;20044;-70
2022/06/01 03:01:58;;;;;;;20.38;17.77;;;;;;;;;;5104909;28;20518;-69
2022/06/01 03:04:24;;;;;;;21.88;18.50;;;;;;;;;;5086474;28;20068;-71
2022/06/01 03:06:50;;;;;;;21.52;18.05;;;;;;;;;;5104346;28;20075;-69
2022/06/01 03:09:16;;;;;;;19.60;17.63;;;;;;;;;;5104651;28;20089;-68
2022/06/01 03:11:42;;;;;;;20.63;15.88;;;;;;;;;;5103547;28;20491;-69
2022/06/01 03:14:08;;;;;;;18.85;16.85;;;;;;;;;;5104432;28;20047;-68
2022/06/01 03:16:34;;;;;;;20.27;17.02;;;;;;;;;;5104493;28;20176;-70
2022/06/01 03:19:00;;;;;;;18.38;16.42;;;;;;;;;;5104782;28;20511;-68
2022/06/01 03:21:26;;;;;;;18.00;16.15;;;;;;;;;;5104457;28;20031;-69
2022/06/01 03:23:52;;;;;;;17.40;15.77;;;;;;;;;;5102727;28;20287;-69
2022/06/01 03:26:17;;;;;;;15.70;14.32;;;;;;;;;;5090887;28;20082;-69
2022/06/01 03:28:43;;;;;;;16.48;14.95;;;;;;;;;;5072525;28;20040;-68
2022/06/01 03:31:09;;;;;;;14.80;13.50;;;;;;;;;;5090880;28;20060;-70
2022/06/01 03:33:35;;;;;;;14.02;11.93;;;;;;;;;;5090489;28;20082;-70
2022/06/01 03:36:02;;;;;;;15.13;13.70;;;;;;;;;;5072655;28;20036;-69
2022/06/01 03:38:28;;;;;;;12.88;11.68;;;;;;;;;;5090600;28;20414;-69
2022/06/01 03:40:54;;;;;;;13.07;11.75;;;;;;;;;;5090970;28;20085;-71
2022/06/01 03:43:20;;;;;;;13.57;12.38;;;;;;;;;;5090976;28;20564;-70
2022/06/01 03:45:58;;;;;;;14.70;11.70;;;;;;;;;;5087430;28;20059;-69
2022/06/01 03:48:31;;;;;;;13.18;12.07;;;;;;;;;;5052593;28;20081;-71
2022/06/01 03:50:57;;;;;;;13.13;11.85;;;;;;;;;;5070424;28;20027;-70
2022/06/01 03:53:23;;;;;;;15.63;10.32;;;;;;;;;;5070067;28;20044;-71
2022/06/01 03:55:49;;;;;;;11.23;10.10;;;;;;;;;;5052305;28;20025;-70
2022/06/01 03:58:16;;;;;;;12.05;10.43;;;;;;;;;;5070220;28;20472;-71
2022/06/01 04:00:43;;;;;;;18.73;9.45;;;;;;;;;;5069742;28;20024;-68
2022/06/01 04:03:09;;;;;;;10.55;9.55;;;;;;;;;;5070215;28;20048;-70
2022/06/01 04:05:35;;;;;;;12.90;8.98;;;;;;;;;;5069586;28;20089;-70
2022/06/01 04:08:02;;;;;;;9.85;9.07;;;;;;;;;;5070020;28;20153;-70
2022/06/01 04:10:27;;;;;;;11.02;10.05;;;;;;;;;;5069539;28;20031;-69
2022/06/01 04:12:53;;;;;;;11.15;9.15;;;;;;;;;;5079318;28;20043;-70
2022/06/01 04:15:19;;;;;;;11.23;10.27;;;;;;;;;;5071991;28;20034;-69
2022/06/01 04:17:45;;;;;;;11.55;10.45;;;;;;;;;;5089880;28;20040;-70
2022/06/01 04:20:11;;;;;;;13.75;10.85;;;;;;;;;;5089738;28;20498;-69
2022/06/01 04:22:38;;;;;;;11.02;9.95;;;;;;;;;;5089029;28;20032;-70
2022/06/01 04:25:04;;;;;;;11.93;10.77;;;;;;;;;;5089449;28;20032;-69
2022/06/01 04:27:30;;;;;;;14.40;10.25;;;;;;;;;;5089685;28;20036;-69
2022/06/01 04:29:56;;;;;;;9.43;8.63;;;;;;;;;;5088196;28;20032;-70
2022/06/01 04:32:25;;;;;;;9.68;8.88;;;;;;;;;;5088848;28;20115;-69
2022/06/01 04:34:51;;;;;;;10.30;9.18;;;;;;;;;;5089582;28;20645;-69
2022/06/01 04:37:16;;;;;;;10.25;9.27;;;;;;;;;;5088883;28;20111;-70
2022/06/01 04:39:42;;;;;;;11.38;9.93;;;;;;;;;;5089409;28;20384;-69
2022/06/01 04:42:08;;;;;;;10.93;9.93;;;;;;;;;;5071695;28;20038;-69
2022/06/01 04:44:34;;;;;;;12.52;11.38;;;;;;;;;;5089309;28;20035;-70
2022/06/01 04:47:00;;;;;;;12.38;11.23;;;;;;;;;;5071343;28;20039;-69
2022/06/01 04:49:26;;;;;;;12.88;11.63;;;;;;;;;;5089132;28;20032;-70
2022/06/01 04:51:52;;;;;;;12.25;11.35;;;;;;;;;;5089369;28;20058;-70
2022/06/01 04:54:18;;;;;;;12.25;11.23;;;;;;;;;;5089332;28;20503;-69
2022/06/01 04:56:44;;;;;;;11.82;10.75;;;;;;;;;;5089089;28;20055;-69
2022/06/01 04:59:09;;;;;;;11.82;10.60;;;;;;;;;;5089275;28;20503;-70
2022/06/01 05:01:35;;;;;;;12.65;11.55;;;;;;;;;;5088861;28;20119;-70
2022/06/01 05:04:01;;;;;;;11.80;10.52;;;;;;;;;;5089125;28;20036;-69
2022/06/01 05:06:27;;;;;;;11.23;10.32;;;;;;;;;;5088884;28;20036;-71
2022/06/01 05:08:52;;;;;;;10.45;9.50;;;;;;;;;;5088848;28;20031;-70
2022/06/01 05:11:19;;;;;;;10.43;9.60;;;;;;;;;;5089247;28;20089;-69
2022/06/01 05:13:46;;;;;;;10.82;9.68;;;;;;;;;;5071059;28;20090;-70
2022/06/01 05:16:12;;;;;;;11.75;9.48;;;;;;;;;;5068542;28;20044;-69
2022/06/01 05:18:39;;;;;;;11.70;8.52;;;;;;;;;;5068504;28;20100;-70
2022/06/01 05:21:04;;;;;;;9.23;7.03;;;;;;;;;;5068514;28;20039;-69
2022/06/01 05:23:30;;;;;;;8.00;7.22;;;;;;;;;;5068033;28;20056;-70
2022/06/01 05:25:56;;;;;;;10.30;6.68;;;;;;;;;;5068368;28;20089;-70
2022/06/01 05:28:23;;;;;;;11.10;6.80;;;;;;;;;;5068528;28;20123;-70
2022/06/01 05:30:49;;;;;;;7.72;6.50;;;;;;;;;;5068217;28;20452;-69
2022/06/01 05:33:15;;;;;;;7.38;5.45;;;;;;;;;;5068305;28;20040;-70
2022/06/01 05:35:41;;;;;;;8.43;6.00;;;;;;;;;;5067949;28;20067;-70
2022/06/01 05:38:06;;;;;;;6.13;5.53;;;;;;;;;;5068329;28;20056;-70
2022/06/01 05:40:32;;;;;;;5.53;4.32;;;;;;;;;;5077974;28;20289;-71
2022/06/01 05:42:58;;;;;;;7.03;4.05;;;;;;;;;;5088482;28;20035;-71
2022/06/01 05:45:24;;;;;;;4.40;4.07;;;;;;;;;;5088381;28;20027;-72
2022/06/01 05:47:50;;;;;;;6.93;3.80;;;;;;;;;;5087960;28;20511;-72
2022/06/01 05:50:16;;;;;;;11.10;4.07;;;;;;;;;;5088021;28;20035;-71
2022/06/01 05:52:42;;;;;;;4.47;4.10;;;;;;;;;;5069941;28;20674;-71
2022/06/01 05:55:09;;;;;;;5.45;4.53;;;;;;;;;;5088460;28;20495;-71
2022/06/01 05:57:36;;;;;;;6.43;3.97;;;;;;;;;;5084154;28;20329;-71
2022/06/01 06:00:04;;;;;;;8.32;3.20;;;;;;;;;;5083294;28;20700;-71
2022/06/01 06:02:38;;;;;;;4.00;3.70;;;;;;;;;;5085899;28;20035;-71
2022/06/01 06:06:11;;;;;;;5.82;4.38;;;;;;;;;;5085656;28;20024;-70
2022/06/01 06:07:50;;;;;;;4.85;4.15;;;;;;;;;;5085787;28;20076;-70
2022/06/01 06:10:16;;;;;;;5.18;3.70;;;;;;;;;;5067606;28;20172;-70
2022/06/01 06:12:41;;;;;;;8.55;3.70;;;;;;;;;;5051230;28;20047;-71
2022/06/01 06:15:08;;;;;;;4.97;3.75;;;;;;;;;;5084780;28;20031;-70
2022/06/01 06:17:34;;;;;;;4.07;3.58;;;;;;;;;;5081825;28;20689;-72
2022/06/01 06:19:59;;;;;;;5.30;3.20;;;;;;;;;;5084940;28;20094;-70
2022/06/01 06:22:25;;;;;;;8.10;7.50;;;;;;;;;;5086495;28;20093;-69
2022/06/01 06:24:51;;;;;;;3.92;3.70;;;;;;;;;;5085430;28;20052;-72
2022/06/01 06:27:17;;;;;;;3.30;3.00;;;;;;;;;;5086222;28;20488;-71
2022/06/01 06:29:43;;;;;;;5.72;3.05;;;;;;;;;;5086133;28;20077;-70
2022/06/01 06:32:09;;;;;;;4.22;2.95;;;;;;;;;;5067996;28;20024;-70
2022/06/01 06:34:35;;;;;;;5.40;2.90;;;;;;;;;;5085172;28;20040;-71
2022/06/01 06:37:01;;;;;;;4.72;3.10;;;;;;;;;;5086165;28;20457;-71
2022/06/01 06:39:27;;;;;;;5.50;3.10;;;;;;;;;;5067582;28;20039;-71
2022/06/01 06:41:53;;;;;;;6.20;3.00;;;;;;;;;;5085585;28;20442;-71
2022/06/01 06:44:19;;;;;;;5.88;3.30;;;;;;;;;;5050902;28;20049;-70
2022/06/01 06:46:44;;;;;;;10.23;2.95;;;;;;;;;;5084874;28;20058;-71
2022/06/01 06:49:10;;;;;;;3.20;2.90;;;;;;;;;;5084236;28;20028;-70
2022/06/01 06:51:36;;;;;;;7.38;2.95;;;;;;;;;;5070872;28;20054;-69
2022/06/01 06:54:02;;;;;;;9.93;3.10;;;;;;;;;;5066588;28;20515;-70
2022/06/01 06:56:28;;;;;;;3.67;3.20;;;;;;;;;;5066523;28;20028;-70
2022/06/01 06:58:53;;;;;;;3.78;3.53;;;;;;;;;;5066139;28;20097;-69
2022/06/01 07:01:19;;;;;;;6.40;3.30;;;;;;;;;;5070611;28;20107;-68
2022/06/01 07:03:45;;;;;;;3.53;3.20;;;;;;;;;;5070859;28;20044;-69
2022/06/01 07:06:17;;;;;;;5.05;3.00;;;;;;;;;;5070848;28;20021;-70
2022/06/01 07:08:49;;;;;;;3.70;2.67;;;;;;;;;;5070579;28;20193;-71
2022/06/01 07:11:16;;;;;;;4.90;3.05;;;;;;;;;;5052761;28;20113;-69
2022/06/01 07:13:42;;;;;;;4.53;3.17;;;;;;;;;;5070500;28;20131;-71
2022/06/01 07:16:09;;;;;;;7.05;3.65;;;;;;;;;;5052162;28;20189;-69
2022/06/01 07:18:35;;;;;;;3.88;3.55;;;;;;;;;;5070421;28;20033;-70
2022/06/01 07:21:01;;;;;;;10.13;3.90;;;;;;;;;;5070788;28;20032;-69
2022/06/01 07:23:27;;;;;;;5.88;3.67;;;;;;;;;;5052892;28;20056;-69
2022/06/01 07:25:53;;;;;;;4.25;3.40;;;;;;;;;;5069999;28;20044;-69
2022/06/01 07:28:21;;;;;;;12.23;3.30;;;;;;;;;;5070617;28;20033;-68
2022/06/01 07:30:49;;;;;;;3.80;3.50;;;;;;;;;;5070357;28;20032;-69
2022/06/01 07:33:15;;;;;;;7.18;3.42;;;;;;;;;;5080872;28;20040;-69
2022/06/01 07:35:41;;;;;;;6.68;3.83;;;;;;;;;;5072374;28;20025;-68
2022/06/01 07:43:38;;;;;;;4.68;3.15;;;;;;;;;;5090669;28;20028;-70
2022/06/01 07:46:04;;;;;;;5.65;3.17;;;;;;;;;;5087221;28;20024;-70
2022/06/01 07:48:29;;;;;;;3.70;2.80;;;;;;;;;;5079351;28;20552;-70
2022/06/01 07:50:55;;;;;;;3.58;3.00;;;;;;;;;;5081108;28;20032;-70
2022/06/01 07:53:21;;;;;;;3.97;3.10;;;;;;;;;;5089704;28;20430;-69
2022/06/01 07:55:47;;;;;;;3.85;3.00;;;;;;;;;;5076139;28;20081;-69
2022/06/01 07:58:13;;;;;;;7.38;3.20;;;;;;;;;;5070141;28;20521;-69
2022/06/01 08:00:39;;;;;;;6.43;3.10;;;;;;;;;;5069598;28;20040;-70
2022/06/01 08:03:10;;;;;;;6.75;3.00;;;;;;;;;;5073823;28;20066;-70
2022/06/01 08:05:36;;;;;;;9.35;3.20;;;;;;;;;;5089989;28;20143;-69
2022/06/01 08:08:02;;;;;;;6.55;2.97;;;;;;;;;;5090167;28;20044;-69
2022/06/01 08:10:28;;;;;;;8.40;3.15;;;;;;;;;;5072004;28;20039;-70
2022/06/01 08:13:06;;;;;;;6.03;3.00;;;;;;;;;;5071454;28;20411;-68
2022/06/01 08:15:42;;;;;;;6.47;2.70;;;;;;;;;;5090316;28;20066;-69
2022/06/01 08:18:08;;;;;;;4.85;3.33;;;;;;;;;;5072071;28;20040;-71
2022/06/01 08:20:35;;;;;;;6.35;3.05;;;;;;;;;;5082819;28;20036;-69
2022/06/01 08:23:01;;;;;;;7.28;2.78;;;;;;;;;;5069146;28;20056;-71
2022/06/01 08:25:27;;;;;;;4.70;3.13;;;;;;;;;;5069489;28;20085;-70
2022/06/01 08:27:53;;;;;;;4.82;2.90;;;;;;;;;;5085635;28;20028;-70
2022/06/01 08:30:20;;;;;;;2.70;2.50;;;;;;;;;;5071504;28;20160;-70
2022/06/01 08:32:46;;;;;;;3.92;2.70;;;;;;;;;;5071624;28;20032;-70
2022/06/01 08:35:12;;;;;;;4.80;2.50;;;;;;;;;;5089459;28;20050;-70
2022/06/01 08:37:38;;;;;;;4.57;2.60;;;;;;;;;;5089240;28;20032;-71
2022/06/01 08:40:04;;;;;;;4.20;2.95;;;;;;;;;;5089702;28;20513;-70
2022/06/01 08:42:30;;;;;;;3.28;2.97;;;;;;;;;;5089826;28;20403;-70
2022/06/01 08:44:57;;;;;;;6.35;2.90;;;;;;;;;;5054429;28;20052;-70
2022/06/01 08:47:25;;;;;;;5.10;3.30;;;;;;;;;;5066348;28;20043;-71
2022/06/01 08:49:50;;;;;;;4.80;3.28;;;;;;;;;;5050502;28;20516;-71
2022/06/01 08:52:16;;;;;;;4.55;3.03;;;;;;;;;;5069116;28;20035;-68
2022/06/01 08:54:42;;;;;;;6.32;3.13;;;;;;;;;;5067591;28;20044;-70
2022/06/01 08:57:11;;;;;;;4.63;2.90;;;;;;;;;;5034748;28;20458;-70
2022/06/01 08:59:47;;;;;;;3.50;3.20;;;;;;;;;;5067690;28;20092;-70
2022/06/01 09:02:22;;;;;;;9.63;3.50;;;;;;;;;;5068628;28;20066;-70
2022/06/01 09:04:51;;;;;;;6.93;3.47;;;;;;;;;;5068554;28;20089;-72
2022/06/01 09:07:28;;;;;;;7.50;3.25;;;;;;;;;;5067239;28;20041;-68
2022/06/01 09:10:12;;;;;;;3.20;3.00;;;;;;;;;;5050176;28;20120;-69
2022/06/01 09:12:38;;;;;;;6.47;4.70;;;;;;;;;;5068404;28;20085;-69
2022/06/01 09:15:25;;;;;;;6.55;4.25;;;;;;;;;;5068086;28;20261;-71
2022/06/01 09:17:50;;;;;;;8.32;4.35;;;;;;;;;;5067777;28;20045;-71
2022/06/01 09:23:01;;;;;;;6.88;4.78;;;;;;;;;;5099504;28;20573;-70
2022/06/01 09:25:28;;;;;;;6.90;4.43;;;;;;;;;;5108518;28;20059;-70
2022/06/01 09:27:59;;;;;;;6.28;4.20;;;;;;;;;;5091890;28;20047;-69
2022/06/01 09:30:26;;;;;;;5.97;3.80;;;;;;;;;;5088571;28;20044;-70
2022/06/01 09:33:20;;;;;;;4.00;3.67;;;;;;;;;;5088099;28;20044;-70
2022/06/01 09:35:53;;;;;;;4.45;4.05;;;;;;;;;;5064794;28;20466;-69
2022/06/01 09:38:20;;;;;;;6.50;3.97;;;;;;;;;;5088140;28;20360;-69
2022/06/01 09:40:46;;;;;;;4.13;3.55;;;;;;;;;;5087866;28;20039;-69
2022/06/01 09:43:25;;;;;;;6.78;3.80;;;;;;;;;;5088441;28;20036;-70
2022/06/01 09:45:53;;;;;;;9.02;3.65;;;;;;;;;;5087883;28;20040;-69
2022/06/01 09:48:29;;;;;;;6.05;3.75;;;;;;;;;;5064172;28;20407;-70
2022/06/01 09:50:58;;;;;;;4.95;3.53;;;;;;;;;;5065756;28;20064;-70
2022/06/01 09:53:24;;;;;;;4.80;4.03;;;;;;;;;;5049778;28;20135;-69
2022/06/01 09:55:50;;;;;;;5.85;3.08;;;;;;;;;;5066025;28;20618;-69
2022/06/01 10:06:05;;;;;;;5.72;2.90;;;;;;;;;;5067684;28;20083;-70
2022/06/01 10:06:37;;;;;;;2.78;2.58;;;;;;;;;;5067632;28;20036;-68
2022/06/01 10:09:09;;;;;;;6.93;2.85;;;;;;;;;;5066050;28;20032;-69
2022/06/01 10:11:40;;;;;;;3.97;2.97;;;;;;;;;;5066253;28;20115;-69
2022/06/01 10:14:22;;;;;;;7.05;3.22;;;;;;;;;;5067479;28;20098;-69
2022/06/01 10:16:51;;;;;;;4.97;3.65;;;;;;;;;;5067091;28;20036;-70
2022/06/01 10:19:18;;;;;;;5.93;3.42;;;;;;;;;;5067867;28;20041;-69
2022/06/01 10:22:00;;;;;;;8.80;3.88;;;;;;;;;;5066007;28;20443;-70
2022/06/01 10:24:28;;;;;;;5.10;3.95;;;;;;;;;;5046125;28;20454;-70
2022/06/01 10:26:59;;;;;;;10.02;4.05;;;;;;;;;;5046207;28;20099;-68
2022/06/01 10:29:42;;;;;;;5.03;3.67;;;;;;;;;;5047518;28;20073;-69
2022/06/01 10:32:10;;;;;;;6.68;3.60;;;;;;;;;;5046305;28;20448;-69
2022/06/01 10:34:55;;;;;;;7.18;3.55;;;;;;;;;;5047223;28;20513;-70
2022/06/01 10:37:34;;;;;;;3.90;3.60;;;;;;;;;;5050473;28;20044;-69
2022/06/01 10:40:00;;;;;;;3.67;3.33;;;;;;;;;;5049726;28;20090;-69
2022/06/01 10:45:15;;;;;;;3.65;3.35;;;;;;;;;;5051564;28;20487;-70
2022/06/01 10:48:00;;;;;;;3.53;3.22;;;;;;;;;;5050234;28;20261;-69
2022/06/01 10:50:28;;;;;;;6.30;3.83;;;;;;;;;;5051707;28;20029;-69
2022/06/01 10:53:14;;;;;;;5.75;3.97;;;;;;;;;;5033346;28;20496;-69
2022/06/01 10:55:42;;;;;;;4.18;3.75;;;;;;;;;;5051055;28;20124;-69
2022/06/01 10:58:08;;;;;;;4.40;3.97;;;;;;;;;;5049682;28;20047;-68
2022/06/01 11:00:41;;;;;;;5.03;3.95;;;;;;;;;;5051298;28;20120;-70
2022/06/01 11:03:29;;;;;;;3.67;3.38;;;;;;;;;;5049835;28;20037;-69
2022/06/01 11:06:08;;;;;;;6.72;3.20;;;;;;;;;;5032769;28;20075;-68
2022/06/01 11:08:43;;;;;;;5.65;3.38;;;;;;;;;;5051241;28;20044;-69
2022/06/01 11:11:12;;;;;;;4.25;3.20;;;;;;;;;;5051223;28;20041;-70
2022/06/01 11:13:57;;;;;;;2.83;2.70;;;;;;;;;;5050437;28;20238;-69
2022/06/01 11:16:52;;;;;;;3.25;3.05;;;;;;;;;;5051043;28;20496;-70
2022/06/01 11:19:24;;;;;;;3.05;2.83;;;;;;;;;;5036842;28;20136;-70
2022/06/01 11:21:53;;;;;;;3.28;2.92;;;;;;;;;;5050540;28;20048;-71
2022/06/01 11:24:24;;;;;;;6.05;2.90;;;;;;;;;;5065378;28;20053;-69
2022/06/01 11:27:19;;;;;;;3.10;2.90;;;;;;;;;;5077863;28;20028;-70
2022/06/01 11:29:45;;;;;;;4.53;3.10;;;;;;;;;;5077181;28;20040;-69
2022/06/01 11:32:12;;;;;;;3.17;2.53;;;;;;;;;;5090503;28;20109;-70
2022/06/01 11:34:44;;;;;;;2.45;2.25;;;;;;;;;;5072800;28;20047;-69
2022/06/01 11:37:12;;;;;;;3.05;2.50;;;;;;;;;;5039108;28;20028;-68
2022/06/01 11:39:41;;;;;;;4.25;2.95;;;;;;;;;;5090776;28;20043;-69
2022/06/01 11:42:09;;;;;;;3.42;3.00;;;;;;;;;;5090292;28;20028;-69
2022/06/01 11:44:36;;;;;;;3.60;3.00;;;;;;;;;;5072846;28;20032;-68
2022/06/01 11:47:22;;;;;;;3.35;3.15;;;;;;;;;;5089383;28;20028;-68
2022/06/01 11:50:00;;;;;;;3.25;2.95;;;;;;;;;;5071889;28;20570;-69
2022/06/01 11:52:52;;;;;;;3.20;2.97;;;;;;;;;;5070232;28;20067;-69
2022/06/01 11:55:31;;;;;;;3.35;2.95;;;;;;;;;;5066127;28;20055;-70
2022/06/01 11:58:04;;;;;;;7.03;3.40;;;;;;;;;;5070275;28;20146;-70
2022/06/01 12:00:32;;;;;;;3.60;3.30;;;;;;;;;;5068958;28;20037;-69
2022/06/01 12:03:17;;;;;;;3.67;3.30;;;;;;;;;;5069910;28;20035;-69
2022/06/01 12:06:06;;;;;;;7.47;3.97;;;;;;;;;;5070131;28;20476;-69
2022/06/01 12:08:36;;;;;;;6.13;4.40;;;;;;;;;;5031814;28;20045;-70
2022/06/01 12:11:06;;;;;;;4.93;4.63;;;;;;;;;;5068402;28;20028;-70
2022/06/01 12:13:35;;;;;;;5.75;5.20;;;;;;;;;;5051905;28;20097;-68
2022/06/01 12:16:07;;;;;;;12.93;4.97;;;;;;;;;;5051615;28;20036;-69
2022/06/01 12:18:33;;;;;;;6.85;4.88;;;;;;;;;;5070077;28;20115;-70
2022/06/01 12:21:17;;;;;;;9.70;4.70;;;;;;;;;;5034720;28;20532;-70
2022/06/01 12:29:33;;;;;;;11.93;4.53;;;;;;;;;;5089998;28;20032;-69
2022/06/01 12:31:59;;;;;;;4.05;3.60;;;;;;;;;;5089515;28;20047;-69
2022/06/01 12:34:32;;;;;;;7.13;4.32;;;;;;;;;;5089758;28;20040;-69
2022/06/01 12:37:04;;;;;;;5.00;3.55;;;;;;;;;;5089249;28;20036;-69
2022/06/01 12:39:32;;;;;;;5.13;4.45;;;;;;;;;;5089725;28;20085;-69
2022/06/01 12:42:00;;;;;;;5.13;4.30;;;;;;;;;;5088954;28;20089;-70
2022/06/01 12:44:26;;;;;;;4.60;4.10;;;;;;;;;;5089442;28;20039;-70
2022/06/01 12:46:51;;;;;;;4.38;3.97;;;;;;;;;;5089324;28;20040;-69
2022/06/01 12:49:20;;;;;;;5.65;4.22;;;;;;;;;;5074988;28;20039;-70
2022/06/01 12:51:46;;;;;;;3.90;3.60;;;;;;;;;;5068858;28;20040;-70
2022/06/01 12:54:23;;;;;;;4.93;4.38;;;;;;;;;;5050570;28;20531;-69
2022/06/01 12:56:49;;;;;;;5.93;3.00;;;;;;;;;;5068136;28;20064;-69
2022/06/01 12:59:15;;;;;;;3.63;3.33;;;;;;;;;;5068865;28;20036;-69
2022/06/01 13:01:40;;;;;;;8.48;3.40;;;;;;;;;;5068948;28;20503;-68
2022/06/01 13:04:06;;;;;;;3.00;2.80;;;;;;;;;;5050848;28;20161;-69
2022/06/01 13:06:32;;;;;;;3.97;3.22;;;;;;;;;;5068970;28;20499;-70
2022/06/01 13:08:59;;;;;;;3.45;2.67;;;;;;;;;;5068687;28;20560;-70
2022/06/01 13:11:29;;;;;;;3.50;3.30;;;;;;;;;;5068624;28;20032;-69
2022/06/01 13:14:05;;;;;;;4.50;3.37;;;;;;;;;;5068418;28;20074;-71
2022/06/01 13:16:38;;;;;;;2.90;2.70;;;;;;;;;;5068547;28;20278;-69
2022/06/01 13:19:24;;;;;;;4.55;3.30;;;;;;;;;;5068663;28;20040;-71
2022/06/01 13:21:55;;;;;;;4.60;2.90;;;;;;;;;;5066991;28;20041;-68
2022/06/01 13:24:20;;;;;;;4.78;2.70;;;;;;;;;;5068332;28;20044;-70
2022/06/01 13:26:50;;;;;;;4.22;2.88;;;;;;;;;;5075410;28;20070;-72
2022/06/01 13:29:17;;;;;;;2.28;2.15;;;;;;;;;;5070459;28;20027;-70
2022/06/01 13:31:45;;;;;;;5.50;2.65;;;;;;;;;;5070543;28;20032;-69
2022/06/01 13:34:32;;;;;;;4.18;2.90;;;;;;;;;;5053030;28;20092;-69
2022/06/01 13:37:16;;;;;;;3.63;3.33;;;;;;;;;;5088087;28;20027;-70
2022/06/01 13:39:58;;;;;;;4.45;3.30;;;;;;;;;;5088520;28;20142;-70
2022/06/01 13:42:30;;;;;;;6.97;3.65;;;;;;;;;;5088519;28;20159;-70
2022/06/01 13:45:05;;;;;;;3.92;3.22;;;;;;;;;;5088342;28;20040;-70
2022/06/01 13:47:32;;;;;;;7.57;3.75;;;;;;;;;;5088225;28;20044;-70
2022/06/01 13:49:59;;;;;;;7.50;3.95;;;;;;;;;;5068682;28;20083;-70
2022/06/01 13:52:26;;;;;;;8.43;4.00;;;;;;;;;;5050007;28;20685;-70
2022/06/01 13:55:08;;;;;;;6.28;4.30;;;;;;;;;;5067880;28;20471;-70
2022/06/01 13:57:44;;;;;;;4.50;3.58;;;;;;;;;;5067908;28;20039;-70
2022/06/01 14:00:17;;;;;;;5.20;3.03;;;;;;;;;;5067680;28;20040;-71
2022/06/01 14:02:51;;;;;;;7.57;3.50;;;;;;;;;;5050065;28;20071;-70
2022/06/01 14:05:18;;;;;;;9.65;4.18;;;;;;;;;;5067921;28;20367;-70
2022/06/01 14:07:48;;;;;;;5.30;3.40;;;;;;;;;;5068556;28;20032;-69
2022/06/01 14:10:14;;;;;;;12.10;4.57;;;;;;;;;;5068233;28;20032;-71
2022/06/01 14:12:40;;;;;;;6.60;4.18;;;;;;;;;;5067385;28;20086;-70
2022/06/01 14:15:06;;;;;;;9.77;4.03;;;;;;;;;;5067407;28;20036;-70
2022/06/01 14:17:32;;;;;;;8.63;4.90;;;;;;;;;;5051387;28;20032;-71
2022/06/01 14:19:58;;;;;;;10.02;4.45;;;;;;;;;;5069131;28;20051;-70
2022/06/01 14:22:24;;;;;;;9.95;4.43;;;;;;;;;;5051441;28;20388;-70
2022/06/01 14:30:19;;;;;;;4.05;3.75;;;;;;;;;;5084616;28;20443;-70
2022/06/01 14:32:45;;;;;;;13.80;3.85;;;;;;;;;;5070463;28;20036;-70
2022/06/01 14:35:12;;;;;;;11.05;5.18;;;;;;;;;;5067723;28;20033;-70
2022/06/01 14:37:37;;;;;;;11.43;4.88;;;;;;;;;;5051254;28;20040;-70
2022/06/01 14:40:04;;;;;;;10.93;4.13;;;;;;;;;;5071875;28;20039;-71
2022/06/01 14:42:30;;;;;;;4.15;3.40;;;;;;;;;;5069205;28;20044;-71
2022/06/01 14:44:56;;;;;;;11.38;4.85;;;;;;;;;;5071382;28;20063;-70
2022/06/01 14:47:22;;;;;;;7.22;4.18;;;;;;;;;;5089171;28;20071;-71
2022/06/01 14:49:48;;;;;;;7.40;4.30;;;;;;;;;;5053150;28;20487;-69
2022/06/01 14:52:14;;;;;;;9.57;4.40;;;;;;;;;;5068877;28;20492;-70
2022/06/01 14:54:40;;;;;;;12.38;4.43;;;;;;;;;;5051283;28;20093;-70
2022/06/01 14:57:07;;;;;;;8.75;6.18;;;;;;;;;;5068754;28;20029;-71
2022/06/01 14:59:33;;;;;;;14.93;5.22;;;;;;;;;;5069098;28;20089;-70
2022/06/01 15:01:59;;;;;;;14.02;5.60;;;;;;;;;;5069007;28;20074;-71
2022/06/01 15:04:32;;;;;;;6.88;4.40;;;;;;;;;;5068909;28;20056;-70
2022/06/01 15:06:59;;;;;;;11.85;4.63;;;;;;;;;;5051082;28;20593;-70
2022/06/01 15:09:25;;;;;;;13.68;5.72;;;;;;;;;;5068685;28;20455;-70
2022/06/01 15:11:51;;;;;;;8.02;5.05;;;;;;;;;;5068718;28;20419;-70
2022/06/01 15:14:17;;;;;;;10.27;5.03;;;;;;;;;;5068432;28;20036;-70
2022/06/01 15:16:43;;;;;;;9.43;5.47;;;;;;;;;;5068708;28;20522;-69
2022/06/01 15:19:11;;;;;;;6.97;4.30;;;;;;;;;;5068888;28;20039;-70
2022/06/01 15:21:37;;;;;;;9.70;5.00;;;;;;;;;;5037429;28;20059;-71
2022/06/01 15:24:04;;;;;;;7.72;4.90;;;;;;;;;;5073019;28;20512;-71
2022/06/01 15:26:30;;;;;;;4.50;4.20;;;;;;;;;;5073238;28;20028;-69
2022/06/01 15:28:56;;;;;;;16.85;5.50;;;;;;;;;;5073206;28;20044;-71